sensor_id;sensor_type;location;lat;lon;timestamp;P1;durP1;ratioP1;P2;durP2;ratioP2
71639;SDS011;60912;48.968;10.124;2024-01-11T00:02:18;39.90;;;17.70;;
71639;SDS011;60912;48.968;10.124;2024-01-11T00:04:44;43.03;;;18.50;;
71639;SDS011;60912;48.968;10.124;2024-01-11T00:07:09;43.67;;;19.17;;
71639;SDS011;60912;48.968;10.124;2024-01-11T00:09:41;43.87;;;18.43;;
71639;SDS011;60912;48.968;10.124;2024-01-11T00:12:08;41.08;;;18.50;;
71639;SDS011;60912;48.968;10.124;2024-01-11T00:14:34;48.30;;;20.17;;
71639;SDS011;60912;48.968;10.124;2024-01-11T00:17:00;45.75;;;18.95;;
71639;SDS011;60912;48.968;10.124;2024-01-11T00:19:25;44.43;;;19.57;;
71639;SDS011;60912;48.968;10.124;2024-01-11T00:31:57;40.63;;;17.20;;
71639;SDS011;60912;48.968;10.124;2024-01-11T00:44:29;40.33;;;17.90;;
71639;SDS011;60912;48.968;10.124;2024-01-11T00:46:54;56.97;;;20.03;;
71639;SDS011;60912;48.968;10.124;2024-01-11T00:49:20;47.60;;;18.70;;
71639;SDS011;60912;48.968;10.124;2024-01-11T00:51:45;48.67;;;19.63;;
71639;SDS011;60912;48.968;10.124;2024-01-11T00:54:10;37.97;;;16.57;;
71639;SDS011;60912;48.968;10.124;2024-01-11T00:56:36;37.73;;;17.13;;
71639;SDS011;60912;48.968;10.124;2024-01-11T00:59:01;39.53;;;17.17;;
71639;SDS011;60912;48.968;10.124;2024-01-11T01:01:28;36.15;;;16.42;;
71639;SDS011;60912;48.968;10.124;2024-01-11T01:03:53;35.73;;;15.23;;
71639;SDS011;60912;48.968;10.124;2024-01-11T01:06:18;35.60;;;15.23;;
71639;SDS011;60912;48.968;10.124;2024-01-11T01:08:44;37.37;;;15.70;;
71639;SDS011;60912;48.968;10.124;2024-01-11T01:11:09;34.90;;;15.35;;
71639;SDS011;60912;48.968;10.124;2024-01-11T01:13:34;39.67;;;15.93;;
71639;SDS011;60912;48.968;10.124;2024-01-11T01:16:00;34.43;;;15.00;;
71639;SDS011;60912;48.968;10.124;2024-01-11T01:18:25;35.57;;;15.63;;
71639;SDS011;60912;48.968;10.124;2024-01-11T01:20:50;35.57;;;15.43;;
71639;SDS011;60912;48.968;10.124;2024-01-11T01:23:16;34.67;;;15.20;;
71639;SDS011;60912;48.968;10.124;2024-01-11T01:25:41;33.90;;;15.27;;
71639;SDS011;60912;48.968;10.124;2024-01-11T01:28:06;37.90;;;16.23;;
71639;SDS011;60912;48.968;10.124;2024-01-11T01:30:32;41.53;;;16.20;;
71639;SDS011;60912;48.968;10.124;2024-01-11T01:32:57;36.77;;;16.90;;
71639;SDS011;60912;48.968;10.124;2024-01-11T01:35:22;35.97;;;16.30;;
71639;SDS011;60912;48.968;10.124;2024-01-11T01:37:48;39.03;;;16.30;;
71639;SDS011;60912;48.968;10.124;2024-01-11T01:40:14;39.42;;;16.65;;
71639;SDS011;60912;48.968;10.124;2024-01-11T01:42:45;36.20;;;15.97;;
71639;SDS011;60912;48.968;10.124;2024-01-11T01:45:11;38.15;;;15.77;;
71639;SDS011;60912;48.968;10.124;2024-01-11T01:47:37;36.70;;;16.73;;
71639;SDS011;60912;48.968;10.124;2024-01-11T01:50:05;39.57;;;16.27;;
71639;SDS011;60912;48.968;10.124;2024-01-11T01:52:31;34.33;;;16.08;;
71639;SDS011;60912;48.968;10.124;2024-01-11T01:54:58;34.70;;;15.30;;
71639;SDS011;60912;48.968;10.124;2024-01-11T01:57:23;37.08;;;15.70;;
71639;SDS011;60912;48.968;10.124;2024-01-11T01:59:50;35.70;;;15.27;;
71639;SDS011;60912;48.968;10.124;2024-01-11T02:02:20;35.25;;;15.57;;
71639;SDS011;60912;48.968;10.124;2024-01-11T02:04:46;34.78;;;15.40;;
71639;SDS011;60912;48.968;10.124;2024-01-11T02:07:11;37.63;;;16.57;;
71639;SDS011;60912;48.968;10.124;2024-01-11T02:09:38;35.92;;;16.20;;
71639;SDS011;60912;48.968;10.124;2024-01-11T02:12:04;37.45;;;15.77;;
71639;SDS011;60912;48.968;10.124;2024-01-11T02:14:31;34.53;;;15.60;;
71639;SDS011;60912;48.968;10.124;2024-01-11T02:16:56;39.45;;;17.00;;
71639;SDS011;60912;48.968;10.124;2024-01-11T02:19:22;41.07;;;17.50;;
71639;SDS011;60912;48.968;10.124;2024-01-11T02:21:48;37.23;;;16.30;;
71639;SDS011;60912;48.968;10.124;2024-01-11T02:24:17;37.25;;;15.70;;
71639;SDS011;60912;48.968;10.124;2024-01-11T02:27:02;39.42;;;16.42;;
71639;SDS011;60912;48.968;10.124;2024-01-11T02:29:28;37.70;;;15.53;;
71639;SDS011;60912;48.968;10.124;2024-01-11T02:31:55;44.05;;;17.27;;
71639;SDS011;60912;48.968;10.124;2024-01-11T02:34:21;40.75;;;17.38;;
71639;SDS011;60912;48.968;10.124;2024-01-11T02:36:48;34.30;;;16.42;;
71639;SDS011;60912;48.968;10.124;2024-01-11T02:39:15;39.05;;;15.40;;
71639;SDS011;60912;48.968;10.124;2024-01-11T02:41:43;41.30;;;17.50;;
71639;SDS011;60912;48.968;10.124;2024-01-11T02:44:09;37.03;;;15.68;;
71639;SDS011;60912;48.968;10.124;2024-01-11T02:46:34;41.03;;;16.87;;
71639;SDS011;60912;48.968;10.124;2024-01-11T02:48:59;42.87;;;18.60;;
71639;SDS011;60912;48.968;10.124;2024-01-11T02:51:25;40.00;;;16.80;;
71639;SDS011;60912;48.968;10.124;2024-01-11T02:53:50;43.10;;;17.17;;
71639;SDS011;60912;48.968;10.124;2024-01-11T02:56:15;41.30;;;16.83;;
71639;SDS011;60912;48.968;10.124;2024-01-11T02:58:41;38.67;;;16.93;;
71639;SDS011;60912;48.968;10.124;2024-01-11T03:01:06;37.60;;;16.60;;
71639;SDS011;60912;48.968;10.124;2024-01-11T03:03:32;39.83;;;16.60;;
71639;SDS011;60912;48.968;10.124;2024-01-11T03:05:57;37.30;;;15.93;;
71639;SDS011;60912;48.968;10.124;2024-01-11T03:08:22;37.83;;;15.83;;
71639;SDS011;60912;48.968;10.124;2024-01-11T03:10:48;32.10;;;14.27;;
71639;SDS011;60912;48.968;10.124;2024-01-11T03:13:13;33.63;;;15.07;;
71639;SDS011;60912;48.968;10.124;2024-01-11T03:15:39;32.53;;;13.90;;
71639;SDS011;60912;48.968;10.124;2024-01-11T03:18:04;36.17;;;15.17;;
71639;SDS011;60912;48.968;10.124;2024-01-11T03:20:30;35.57;;;14.53;;
71639;SDS011;60912;48.968;10.124;2024-01-11T03:22:55;34.77;;;14.93;;
71639;SDS011;60912;48.968;10.124;2024-01-11T03:25:20;32.93;;;14.50;;
71639;SDS011;60912;48.968;10.124;2024-01-11T03:27:46;34.45;;;13.90;;
71639;SDS011;60912;48.968;10.124;2024-01-11T03:30:11;32.73;;;14.50;;
71639;SDS011;60912;48.968;10.124;2024-01-11T03:32:37;34.67;;;14.60;;
71639;SDS011;60912;48.968;10.124;2024-01-11T03:35:04;35.97;;;15.20;;
71639;SDS011;60912;48.968;10.124;2024-01-11T03:37:32;34.58;;;15.18;;
71639;SDS011;60912;48.968;10.124;2024-01-11T03:39:57;35.57;;;14.73;;
71639;SDS011;60912;48.968;10.124;2024-01-11T03:42:22;40.57;;;15.33;;
71639;SDS011;60912;48.968;10.124;2024-01-11T03:44:48;31.65;;;14.70;;
71639;SDS011;60912;48.968;10.124;2024-01-11T03:47:14;33.50;;;14.07;;
71639;SDS011;60912;48.968;10.124;2024-01-11T03:49:39;31.93;;;14.63;;
71639;SDS011;60912;48.968;10.124;2024-01-11T03:52:04;34.37;;;15.23;;
71639;SDS011;60912;48.968;10.124;2024-01-11T03:54:31;32.85;;;14.02;;
71639;SDS011;60912;48.968;10.124;2024-01-11T03:56:56;32.70;;;14.07;;
71639;SDS011;60912;48.968;10.124;2024-01-11T03:59:22;36.70;;;14.48;;
71639;SDS011;60912;48.968;10.124;2024-01-11T04:01:47;29.80;;;14.10;;
71639;SDS011;60912;48.968;10.124;2024-01-11T04:04:13;33.33;;;14.53;;
71639;SDS011;60912;48.968;10.124;2024-01-11T04:06:38;36.73;;;15.57;;
71639;SDS011;60912;48.968;10.124;2024-01-11T04:09:03;32.78;;;14.20;;
71639;SDS011;60912;48.968;10.124;2024-01-11T04:11:29;34.43;;;15.30;;
71639;SDS011;60912;48.968;10.124;2024-01-11T04:13:54;30.40;;;14.37;;
71639;SDS011;60912;48.968;10.124;2024-01-11T04:16:20;35.65;;;15.13;;
71639;SDS011;60912;48.968;10.124;2024-01-11T04:18:46;31.47;;;13.83;;
71639;SDS011;60912;48.968;10.124;2024-01-11T04:21:21;35.58;;;15.05;;
71639;SDS011;60912;48.968;10.124;2024-01-11T04:23:53;36.30;;;15.43;;
71639;SDS011;60912;48.968;10.124;2024-01-11T04:26:18;34.50;;;14.80;;
71639;SDS011;60912;48.968;10.124;2024-01-11T04:28:44;36.17;;;14.83;;
71639;SDS011;60912;48.968;10.124;2024-01-11T04:31:11;37.17;;;15.63;;
71639;SDS011;60912;48.968;10.124;2024-01-11T04:33:39;38.10;;;15.50;;
71639;SDS011;60912;48.968;10.124;2024-01-11T04:36:10;33.90;;;15.07;;
71639;SDS011;60912;48.968;10.124;2024-01-11T04:38:37;37.17;;;16.10;;
71639;SDS011;60912;48.968;10.124;2024-01-11T04:41:07;36.47;;;15.73;;
71639;SDS011;60912;48.968;10.124;2024-01-11T04:43:33;37.13;;;16.50;;
71639;SDS011;60912;48.968;10.124;2024-01-11T04:46:02;33.70;;;15.30;;
71639;SDS011;60912;48.968;10.124;2024-01-11T04:48:27;35.17;;;14.10;;
71639;SDS011;60912;48.968;10.124;2024-01-11T04:50:53;30.80;;;13.23;;
71639;SDS011;60912;48.968;10.124;2024-01-11T04:53:18;42.23;;;15.27;;
71639;SDS011;60912;48.968;10.124;2024-01-11T04:55:43;38.87;;;15.20;;
71639;SDS011;60912;48.968;10.124;2024-01-11T04:58:09;33.53;;;14.07;;
71639;SDS011;60912;48.968;10.124;2024-01-11T05:00:34;38.20;;;15.00;;
71639;SDS011;60912;48.968;10.124;2024-01-11T05:02:59;36.83;;;15.70;;
71639;SDS011;60912;48.968;10.124;2024-01-11T05:05:25;37.37;;;15.57;;
71639;SDS011;60912;48.968;10.124;2024-01-11T05:07:50;32.85;;;13.98;;
71639;SDS011;60912;48.968;10.124;2024-01-11T05:10:16;34.97;;;15.50;;
71639;SDS011;60912;48.968;10.124;2024-01-11T05:12:41;37.03;;;15.50;;
71639;SDS011;60912;48.968;10.124;2024-01-11T05:15:06;36.93;;;15.37;;
71639;SDS011;60912;48.968;10.124;2024-01-11T05:17:35;36.95;;;15.68;;
71639;SDS011;60912;48.968;10.124;2024-01-11T05:20:00;33.10;;;14.43;;
71639;SDS011;60912;48.968;10.124;2024-01-11T05:22:25;37.57;;;15.63;;
71639;SDS011;60912;48.968;10.124;2024-01-11T05:24:51;30.37;;;15.27;;
71639;SDS011;60912;48.968;10.124;2024-01-11T05:27:16;36.30;;;15.27;;
71639;SDS011;60912;48.968;10.124;2024-01-11T05:29:41;39.25;;;15.65;;
71639;SDS011;60912;48.968;10.124;2024-01-11T05:32:07;38.20;;;15.00;;
71639;SDS011;60912;48.968;10.124;2024-01-11T05:34:32;36.97;;;15.90;;
71639;SDS011;60912;48.968;10.124;2024-01-11T05:36:57;38.03;;;15.70;;
71639;SDS011;60912;48.968;10.124;2024-01-11T05:39:23;34.03;;;14.03;;
71639;SDS011;60912;48.968;10.124;2024-01-11T05:41:48;37.60;;;14.77;;
71639;SDS011;60912;48.968;10.124;2024-01-11T05:44:14;33.97;;;15.00;;
71639;SDS011;60912;48.968;10.124;2024-01-11T05:46:39;30.77;;;14.90;;
71639;SDS011;60912;48.968;10.124;2024-01-11T05:49:04;35.70;;;16.00;;
71639;SDS011;60912;48.968;10.124;2024-01-11T05:51:30;35.30;;;15.90;;
71639;SDS011;60912;48.968;10.124;2024-01-11T05:53:56;37.03;;;15.47;;
71639;SDS011;60912;48.968;10.124;2024-01-11T05:56:21;39.67;;;15.97;;
71639;SDS011;60912;48.968;10.124;2024-01-11T05:58:47;36.17;;;15.77;;
71639;SDS011;60912;48.968;10.124;2024-01-11T06:01:12;35.23;;;14.90;;
71639;SDS011;60912;48.968;10.124;2024-01-11T06:03:37;35.90;;;14.60;;
71639;SDS011;60912;48.968;10.124;2024-01-11T06:06:04;39.67;;;17.40;;
71639;SDS011;60912;48.968;10.124;2024-01-11T06:08:30;38.77;;;17.00;;
71639;SDS011;60912;48.968;10.124;2024-01-11T06:10:56;38.78;;;15.68;;
71639;SDS011;60912;48.968;10.124;2024-01-11T06:13:22;35.67;;;15.48;;
71639;SDS011;60912;48.968;10.124;2024-01-11T06:15:47;39.23;;;15.87;;
71639;SDS011;60912;48.968;10.124;2024-01-11T06:18:13;35.87;;;15.73;;
71639;SDS011;60912;48.968;10.124;2024-01-11T06:20:38;36.17;;;14.47;;
71639;SDS011;60912;48.968;10.124;2024-01-11T06:23:03;41.03;;;17.07;;
71639;SDS011;60912;48.968;10.124;2024-01-11T06:25:29;38.33;;;16.35;;
71639;SDS011;60912;48.968;10.124;2024-01-11T06:27:54;35.63;;;15.40;;
71639;SDS011;60912;48.968;10.124;2024-01-11T06:30:20;35.80;;;15.03;;
71639;SDS011;60912;48.968;10.124;2024-01-11T06:32:46;37.80;;;14.68;;
71639;SDS011;60912;48.968;10.124;2024-01-11T06:35:12;35.37;;;14.87;;
71639;SDS011;60912;48.968;10.124;2024-01-11T06:37:37;33.17;;;15.00;;
71639;SDS011;60912;48.968;10.124;2024-01-11T06:40:03;36.30;;;15.07;;
71639;SDS011;60912;48.968;10.124;2024-01-11T06:42:29;36.22;;;15.23;;
71639;SDS011;60912;48.968;10.124;2024-01-11T06:44:55;40.83;;;17.27;;
71639;SDS011;60912;48.968;10.124;2024-01-11T06:47:20;48.57;;;19.20;;
71639;SDS011;60912;48.968;10.124;2024-01-11T06:49:46;44.70;;;18.50;;
71639;SDS011;60912;48.968;10.124;2024-01-11T06:52:12;44.03;;;19.27;;
71639;SDS011;60912;48.968;10.124;2024-01-11T06:54:37;45.40;;;17.07;;
71639;SDS011;60912;48.968;10.124;2024-01-11T06:57:02;43.72;;;18.10;;
71639;SDS011;60912;48.968;10.124;2024-01-11T06:59:28;35.17;;;15.70;;
71639;SDS011;60912;48.968;10.124;2024-01-11T07:01:53;36.80;;;15.57;;
71639;SDS011;60912;48.968;10.124;2024-01-11T07:04:19;37.90;;;16.27;;
71639;SDS011;60912;48.968;10.124;2024-01-11T07:06:44;33.23;;;15.40;;
71639;SDS011;60912;48.968;10.124;2024-01-11T07:09:09;33.90;;;15.88;;
71639;SDS011;60912;48.968;10.124;2024-01-11T07:11:36;40.90;;;16.03;;
71639;SDS011;60912;48.968;10.124;2024-01-11T07:14:01;37.45;;;16.10;;
71639;SDS011;60912;48.968;10.124;2024-01-11T07:16:26;36.43;;;15.03;;
71639;SDS011;60912;48.968;10.124;2024-01-11T07:18:52;40.67;;;16.73;;
71639;SDS011;60912;48.968;10.124;2024-01-11T07:21:23;38.77;;;16.03;;
71639;SDS011;60912;48.968;10.124;2024-01-11T07:24:00;40.15;;;16.58;;
71639;SDS011;60912;48.968;10.124;2024-01-11T07:26:26;36.15;;;15.90;;
71639;SDS011;60912;48.968;10.124;2024-01-11T07:28:51;33.33;;;14.70;;
71639;SDS011;60912;48.968;10.124;2024-01-11T07:31:19;47.85;;;18.55;;
71639;SDS011;60912;48.968;10.124;2024-01-11T07:33:45;38.63;;;15.50;;
71639;SDS011;60912;48.968;10.124;2024-01-11T07:36:10;38.47;;;15.80;;
71639;SDS011;60912;48.968;10.124;2024-01-11T07:38:35;39.77;;;16.07;;
71639;SDS011;60912;48.968;10.124;2024-01-11T07:41:01;39.70;;;15.73;;
71639;SDS011;60912;48.968;10.124;2024-01-11T07:43:26;38.47;;;17.00;;
71639;SDS011;60912;48.968;10.124;2024-01-11T07:45:54;35.50;;;16.13;;
71639;SDS011;60912;48.968;10.124;2024-01-11T07:48:24;40.40;;;16.85;;
71639;SDS011;60912;48.968;10.124;2024-01-11T07:50:49;39.00;;;15.73;;
71639;SDS011;60912;48.968;10.124;2024-01-11T07:53:14;40.42;;;16.88;;
71639;SDS011;60912;48.968;10.124;2024-01-11T07:55:40;36.57;;;16.27;;
71639;SDS011;60912;48.968;10.124;2024-01-11T07:58:06;41.90;;;15.68;;
71639;SDS011;60912;48.968;10.124;2024-01-11T08:00:32;36.27;;;15.77;;
71639;SDS011;60912;48.968;10.124;2024-01-11T08:02:58;36.88;;;16.10;;
71639;SDS011;60912;48.968;10.124;2024-01-11T08:05:24;34.80;;;16.30;;
71639;SDS011;60912;48.968;10.124;2024-01-11T08:07:50;36.07;;;15.93;;
71639;SDS011;60912;48.968;10.124;2024-01-11T08:10:15;41.72;;;16.10;;
71639;SDS011;60912;48.968;10.124;2024-01-11T08:12:41;35.80;;;17.00;;
71639;SDS011;60912;48.968;10.124;2024-01-11T08:15:06;42.47;;;19.00;;
71639;SDS011;60912;48.968;10.124;2024-01-11T08:17:36;39.07;;;17.40;;
71639;SDS011;60912;48.968;10.124;2024-01-11T08:20:01;39.28;;;16.15;;
71639;SDS011;60912;48.968;10.124;2024-01-11T08:22:28;38.53;;;15.77;;
71639;SDS011;60912;48.968;10.124;2024-01-11T08:24:58;43.78;;;18.60;;
71639;SDS011;60912;48.968;10.124;2024-01-11T08:27:24;42.83;;;17.13;;
71639;SDS011;60912;48.968;10.124;2024-01-11T08:29:49;36.83;;;17.02;;
71639;SDS011;60912;48.968;10.124;2024-01-11T08:32:14;37.70;;;16.37;;
71639;SDS011;60912;48.968;10.124;2024-01-11T08:34:41;40.63;;;17.73;;
71639;SDS011;60912;48.968;10.124;2024-01-11T08:37:07;42.63;;;17.88;;
71639;SDS011;60912;48.968;10.124;2024-01-11T08:39:32;40.23;;;17.87;;
71639;SDS011;60912;48.968;10.124;2024-01-11T08:41:58;42.45;;;17.05;;
71639;SDS011;60912;48.968;10.124;2024-01-11T08:44:24;38.23;;;17.30;;
71639;SDS011;60912;48.968;10.124;2024-01-11T08:46:49;44.17;;;19.03;;
71639;SDS011;60912;48.968;10.124;2024-01-11T08:49:14;40.03;;;18.30;;
71639;SDS011;60912;48.968;10.124;2024-01-11T08:51:40;41.27;;;18.53;;
71639;SDS011;60912;48.968;10.124;2024-01-11T08:54:06;45.10;;;20.40;;
71639;SDS011;60912;48.968;10.124;2024-01-11T08:56:34;43.75;;;19.27;;
71639;SDS011;60912;48.968;10.124;2024-01-11T08:58:59;41.83;;;17.73;;
71639;SDS011;60912;48.968;10.124;2024-01-11T09:01:24;41.00;;;17.13;;
71639;SDS011;60912;48.968;10.124;2024-01-11T09:03:50;37.92;;;15.98;;
71639;SDS011;60912;48.968;10.124;2024-01-11T09:06:15;37.27;;;16.63;;
71639;SDS011;60912;48.968;10.124;2024-01-11T09:08:41;35.93;;;16.07;;
71639;SDS011;60912;48.968;10.124;2024-01-11T09:11:07;36.60;;;16.63;;
71639;SDS011;60912;48.968;10.124;2024-01-11T09:13:32;37.23;;;16.43;;
71639;SDS011;60912;48.968;10.124;2024-01-11T09:15:57;32.33;;;16.03;;
71639;SDS011;60912;48.968;10.124;2024-01-11T09:18:23;34.73;;;16.50;;
71639;SDS011;60912;48.968;10.124;2024-01-11T09:20:48;37.50;;;16.23;;
71639;SDS011;60912;48.968;10.124;2024-01-11T09:23:14;40.70;;;16.53;;
71639;SDS011;60912;48.968;10.124;2024-01-11T09:25:40;36.83;;;15.70;;
71639;SDS011;60912;48.968;10.124;2024-01-11T09:28:06;38.50;;;16.07;;
71639;SDS011;60912;48.968;10.124;2024-01-11T09:30:31;37.13;;;17.43;;
71639;SDS011;60912;48.968;10.124;2024-01-11T09:32:57;36.42;;;17.48;;
71639;SDS011;60912;48.968;10.124;2024-01-11T09:35:22;34.05;;;16.77;;
71639;SDS011;60912;48.968;10.124;2024-01-11T09:37:48;36.80;;;17.43;;
71639;SDS011;60912;48.968;10.124;2024-01-11T09:40:14;33.38;;;15.30;;
71639;SDS011;60912;48.968;10.124;2024-01-11T09:42:41;38.20;;;17.10;;
71639;SDS011;60912;48.968;10.124;2024-01-11T09:45:07;39.67;;;17.55;;
71639;SDS011;60912;48.968;10.124;2024-01-11T09:47:42;34.60;;;16.80;;
71639;SDS011;60912;48.968;10.124;2024-01-11T09:50:10;41.90;;;17.80;;
71639;SDS011;60912;48.968;10.124;2024-01-11T09:52:40;36.88;;;17.02;;
71639;SDS011;60912;48.968;10.124;2024-01-11T09:55:08;33.97;;;17.07;;
71639;SDS011;60912;48.968;10.124;2024-01-11T09:57:33;44.90;;;19.73;;
71639;SDS011;60912;48.968;10.124;2024-01-11T10:00:03;41.05;;;16.60;;
71639;SDS011;60912;48.968;10.124;2024-01-11T10:02:32;37.70;;;18.57;;
71639;SDS011;60912;48.968;10.124;2024-01-11T10:04:58;38.25;;;17.83;;
71639;SDS011;60912;48.968;10.124;2024-01-11T10:07:24;34.30;;;16.07;;
71639;SDS011;60912;48.968;10.124;2024-01-11T10:09:50;38.67;;;18.80;;
71639;SDS011;60912;48.968;10.124;2024-01-11T10:12:19;27.83;;;11.03;;
71639;SDS011;60912;48.968;10.124;2024-01-11T10:14:48;37.20;;;18.95;;
71639;SDS011;60912;48.968;10.124;2024-01-11T10:17:13;41.83;;;18.65;;
71639;SDS011;60912;48.968;10.124;2024-01-11T10:19:39;39.73;;;19.77;;
71639;SDS011;60912;48.968;10.124;2024-01-11T10:22:04;44.60;;;17.40;;
71639;SDS011;60912;48.968;10.124;2024-01-11T10:24:30;39.07;;;17.57;;
71639;SDS011;60912;48.968;10.124;2024-01-11T10:26:56;40.97;;;17.90;;
71639;SDS011;60912;48.968;10.124;2024-01-11T10:29:22;39.20;;;17.88;;
71639;SDS011;60912;48.968;10.124;2024-01-11T10:31:49;36.28;;;16.77;;
71639;SDS011;60912;48.968;10.124;2024-01-11T10:34:15;35.90;;;16.67;;
71639;SDS011;60912;48.968;10.124;2024-01-11T10:36:41;41.03;;;17.33;;
71639;SDS011;60912;48.968;10.124;2024-01-11T10:39:06;42.67;;;17.70;;
71639;SDS011;60912;48.968;10.124;2024-01-11T10:41:40;35.15;;;16.25;;
71639;SDS011;60912;48.968;10.124;2024-01-11T10:44:20;36.45;;;17.15;;
71639;SDS011;60912;48.968;10.124;2024-01-11T10:46:47;37.23;;;17.07;;
71639;SDS011;60912;48.968;10.124;2024-01-11T10:49:33;41.05;;;18.60;;
71639;SDS011;60912;48.968;10.124;2024-01-11T10:52:04;37.92;;;16.83;;
71639;SDS011;60912;48.968;10.124;2024-01-11T10:54:33;39.13;;;17.25;;
71639;SDS011;60912;48.968;10.124;2024-01-11T10:56:59;39.22;;;17.27;;
71639;SDS011;60912;48.968;10.124;2024-01-11T10:59:26;41.77;;;19.27;;
71639;SDS011;60912;48.968;10.124;2024-01-11T11:01:53;34.50;;;16.60;;
71639;SDS011;60912;48.968;10.124;2024-01-11T11:04:21;34.42;;;17.30;;
71639;SDS011;60912;48.968;10.124;2024-01-11T11:06:48;43.80;;;18.98;;
71639;SDS011;60912;48.968;10.124;2024-01-11T11:09:15;42.97;;;19.55;;
71639;SDS011;60912;48.968;10.124;2024-01-11T11:11:42;39.20;;;18.40;;
71639;SDS011;60912;48.968;10.124;2024-01-11T11:14:08;47.20;;;18.20;;
71639;SDS011;60912;48.968;10.124;2024-01-11T11:16:35;35.53;;;16.98;;
71639;SDS011;60912;48.968;10.124;2024-01-11T11:19:01;41.67;;;18.13;;
71639;SDS011;60912;48.968;10.124;2024-01-11T11:21:26;42.50;;;19.20;;
71639;SDS011;60912;48.968;10.124;2024-01-11T11:23:52;36.88;;;18.50;;
71639;SDS011;60912;48.968;10.124;2024-01-11T11:26:17;39.40;;;18.97;;
71639;SDS011;60912;48.968;10.124;2024-01-11T11:28:43;38.27;;;17.80;;
71639;SDS011;60912;48.968;10.124;2024-01-11T11:31:10;37.30;;;17.25;;
71639;SDS011;60912;48.968;10.124;2024-01-11T11:33:36;44.72;;;18.15;;
71639;SDS011;60912;48.968;10.124;2024-01-11T11:36:02;39.97;;;17.93;;
71639;SDS011;60912;48.968;10.124;2024-01-11T11:38:29;39.30;;;18.45;;
71639;SDS011;60912;48.968;10.124;2024-01-11T11:40:59;38.70;;;19.05;;
71639;SDS011;60912;48.968;10.124;2024-01-11T11:43:26;42.23;;;19.27;;
71639;SDS011;60912;48.968;10.124;2024-01-11T11:45:53;41.47;;;19.58;;
71639;SDS011;60912;48.968;10.124;2024-01-11T11:53:33;42.63;;;18.30;;
71639;SDS011;60912;48.968;10.124;2024-01-11T11:55:59;36.90;;;18.13;;
71639;SDS011;60912;48.968;10.124;2024-01-11T11:58:25;41.05;;;19.65;;
71639;SDS011;60912;48.968;10.124;2024-01-11T12:00:52;40.53;;;19.25;;
71639;SDS011;60912;48.968;10.124;2024-01-11T12:03:18;37.30;;;18.20;;
71639;SDS011;60912;48.968;10.124;2024-01-11T12:05:44;40.40;;;17.63;;
71639;SDS011;60912;48.968;10.124;2024-01-11T12:08:09;42.28;;;19.33;;
71639;SDS011;60912;48.968;10.124;2024-01-11T12:10:35;44.53;;;19.50;;
71639;SDS011;60912;48.968;10.124;2024-01-11T12:13:01;42.17;;;19.90;;
71639;SDS011;60912;48.968;10.124;2024-01-11T12:15:27;39.17;;;18.55;;
71639;SDS011;60912;48.968;10.124;2024-01-11T12:17:58;36.60;;;18.63;;
71639;SDS011;60912;48.968;10.124;2024-01-11T12:20:24;37.97;;;18.60;;
71639;SDS011;60912;48.968;10.124;2024-01-11T12:22:49;37.38;;;18.52;;
71639;SDS011;60912;48.968;10.124;2024-01-11T12:25:15;44.73;;;21.17;;
71639;SDS011;60912;48.968;10.124;2024-01-11T12:27:41;41.43;;;18.77;;
71639;SDS011;60912;48.968;10.124;2024-01-11T12:30:07;38.72;;;18.77;;
71639;SDS011;60912;48.968;10.124;2024-01-11T12:32:36;39.58;;;19.08;;
71639;SDS011;60912;48.968;10.124;2024-01-11T12:35:01;37.40;;;19.00;;
71639;SDS011;60912;48.968;10.124;2024-01-11T12:37:29;38.80;;;19.63;;
71639;SDS011;60912;48.968;10.124;2024-01-11T12:39:58;37.03;;;18.58;;
71639;SDS011;60912;48.968;10.124;2024-01-11T12:42:24;38.70;;;19.13;;
71639;SDS011;60912;48.968;10.124;2024-01-11T12:44:53;40.63;;;19.27;;
71639;SDS011;60912;48.968;10.124;2024-01-11T12:47:19;38.88;;;18.63;;
71639;SDS011;60912;48.968;10.124;2024-01-11T12:49:45;40.93;;;18.97;;
71639;SDS011;60912;48.968;10.124;2024-01-11T12:52:16;37.38;;;18.23;;
71639;SDS011;60912;48.968;10.124;2024-01-11T12:54:43;37.67;;;18.83;;
71639;SDS011;60912;48.968;10.124;2024-01-11T12:57:20;37.92;;;17.83;;
71639;SDS011;60912;48.968;10.124;2024-01-11T12:59:46;35.33;;;17.75;;
71639;SDS011;60912;48.968;10.124;2024-01-11T13:02:12;40.88;;;17.60;;
71639;SDS011;60912;48.968;10.124;2024-01-11T13:04:40;35.47;;;16.52;;
71639;SDS011;60912;48.968;10.124;2024-01-11T13:07:09;33.87;;;16.87;;
71639;SDS011;60912;48.968;10.124;2024-01-11T13:09:35;55.92;;;19.08;;
71639;SDS011;60912;48.968;10.124;2024-01-11T13:12:00;38.73;;;17.43;;
71639;SDS011;60912;48.968;10.124;2024-01-11T13:14:26;37.40;;;18.17;;
71639;SDS011;60912;48.968;10.124;2024-01-11T13:16:53;31.87;;;16.10;;
71639;SDS011;60912;48.968;10.124;2024-01-11T13:19:18;34.47;;;16.77;;
71639;SDS011;60912;48.968;10.124;2024-01-11T13:21:43;32.20;;;16.67;;
71639;SDS011;60912;48.968;10.124;2024-01-11T13:24:09;39.27;;;17.63;;
71639;SDS011;60912;48.968;10.124;2024-01-11T13:26:35;34.10;;;17.15;;
71639;SDS011;60912;48.968;10.124;2024-01-11T13:29:04;31.70;;;16.90;;
71639;SDS011;60912;48.968;10.124;2024-01-11T13:31:32;32.20;;;16.42;;
71639;SDS011;60912;48.968;10.124;2024-01-11T13:33:58;33.20;;;16.95;;
71639;SDS011;60912;48.968;10.124;2024-01-11T13:36:23;32.17;;;16.70;;
71639;SDS011;60912;48.968;10.124;2024-01-11T13:38:49;33.43;;;17.13;;
71639;SDS011;60912;48.968;10.124;2024-01-11T13:41:15;34.85;;;17.08;;
71639;SDS011;60912;48.968;10.124;2024-01-11T13:43:42;36.95;;;17.55;;
71639;SDS011;60912;48.968;10.124;2024-01-11T13:46:10;33.45;;;17.48;;
71639;SDS011;60912;48.968;10.124;2024-01-11T13:48:37;35.58;;;18.08;;
71639;SDS011;60912;48.968;10.124;2024-01-11T13:51:03;34.43;;;17.10;;
71639;SDS011;60912;48.968;10.124;2024-01-11T13:53:29;39.00;;;17.52;;
71639;SDS011;60912;48.968;10.124;2024-01-11T13:55:54;34.80;;;16.85;;
71639;SDS011;60912;48.968;10.124;2024-01-11T13:58:20;34.00;;;16.37;;
71639;SDS011;60912;48.968;10.124;2024-01-11T14:00:46;32.72;;;16.67;;
71639;SDS011;60912;48.968;10.124;2024-01-11T14:03:12;32.10;;;17.13;;
71639;SDS011;60912;48.968;10.124;2024-01-11T14:05:37;37.17;;;18.00;;
71639;SDS011;60912;48.968;10.124;2024-01-11T14:08:03;35.50;;;17.10;;
71639;SDS011;60912;48.968;10.124;2024-01-11T14:10:31;39.05;;;17.20;;
71639;SDS011;60912;48.968;10.124;2024-01-11T14:12:58;42.60;;;16.73;;
71639;SDS011;60912;48.968;10.124;2024-01-11T14:15:24;36.55;;;17.20;;
71639;SDS011;60912;48.968;10.124;2024-01-11T14:17:50;33.07;;;17.23;;
71639;SDS011;60912;48.968;10.124;2024-01-11T14:20:16;34.13;;;16.98;;
71639;SDS011;60912;48.968;10.124;2024-01-11T14:22:42;37.38;;;17.10;;
71639;SDS011;60912;48.968;10.124;2024-01-11T14:25:12;38.10;;;18.03;;
71639;SDS011;60912;48.968;10.124;2024-01-11T14:27:37;40.70;;;18.58;;
71639;SDS011;60912;48.968;10.124;2024-01-11T14:30:03;37.33;;;18.20;;